Time;durP1;ratioP1;P1;durP2;ratioP2;P2;SDS_P1;SDS_P2;PMS_P1;PMS_P2;Temp;Humidity;BMP_temperature;BMP_pressure;BME280_temperature;BME280_humidity;BME280_pressure;Samples;Min_cycle;Max_cycle;Signal;HPM_P1;HPM_P2
2022/08/15 04:31:54;;;;;;;;;9.00;8.33;;;;;22.25;55.20;100200.09;5252270;23;45530;-73
2022/08/15 04:34:20;;;;;;;;;7.67;7.33;;;;;22.21;55.39;100203.28;4978089;28;45278;-72
2022/08/15 04:36:46;;;;;;;;;9.67;9.67;;;;;22.18;55.45;100211.75;4980284;28;46020;-73
2022/08/15 04:39:12;;;;;;;;;10.00;8.67;;;;;22.17;55.70;100210.88;4979875;28;45337;-72
2022/08/15 04:41:37;;;;;;;;;8.00;7.67;;;;;22.15;55.36;100215.63;4979106;28;66674;-72
2022/08/15 04:44:05;;;;;;;;;11.33;10.00;;;;;22.14;55.28;100206.66;4978581;28;66703;-73
2022/08/15 04:46:31;;;;;;;;;8.67;8.00;;;;;22.16;55.24;100211.06;4978561;28;46413;-73
2022/08/15 04:48:56;;;;;;;;;11.67;11.33;;;;;22.17;55.48;100205.47;4980778;28;45337;-73
2022/08/15 04:51:22;;;;;;;;;6.33;6.33;;;;;22.17;54.92;100210.06;4979792;28;45325;-72
2022/08/15 04:53:47;;;;;;;;;7.33;7.33;;;;;22.13;55.56;100204.13;4978355;28;67594;-73
2022/08/15 04:56:12;;;;;;;;;8.67;7.67;;;;;22.11;54.96;100204.28;4981650;28;45522;-73
2022/08/15 04:58:38;;;;;;;;;8.00;8.00;;;;;22.10;54.69;100196.34;4978875;28;46728;-72
2022/08/15 05:01:09;;;;;;;;;9.00;9.00;;;;;22.10;54.66;100205.28;4980787;28;45778;-73
2022/08/15 05:03:34;;;;;;;;;8.33;8.33;;;;;22.06;54.86;100194.94;4983824;28;45436;-73
2022/08/15 05:06:03;;;;;;;;;7.00;7.00;;;;;22.06;54.80;100194.94;4979589;28;46106;-73
2022/08/15 05:08:30;;;;;;;;;10.00;10.00;;;;;22.05;55.36;100194.13;4979354;28;45294;-72
2022/08/15 05:11:00;;;;;;;;;9.00;8.00;;;;;22.04;54.97;100189.69;4980093;28;45533;-73
2022/08/15 05:13:29;;;;;;;;;9.67;8.00;;;;;22.01;55.04;100183.81;4979544;28;45763;-72
2022/08/15 05:15:57;;;;;;;;;9.00;7.67;;;;;22.02;54.79;100189.03;4979200;28;46221;-72
2022/08/15 05:18:23;;;;;;;;;7.33;7.33;;;;;22.04;55.01;100183.47;4980312;28;45299;-72
2022/08/15 05:20:48;;;;;;;;;9.67;8.00;;;;;22.03;54.65;100176.34;4978783;28;45609;-72
2022/08/15 05:23:16;;;;;;;;;4.67;4.67;;;;;22.05;54.66;100177.88;4980509;28;45803;-72
2022/08/15 05:25:49;;;;;;;;;8.33;6.67;;;;;22.04;54.95;100178.88;4980252;28;45377;-73
2022/08/15 05:28:14;;;;;;;;;6.00;6.00;;;;;22.03;54.99;100181.75;4981165;28;45800;-72
2022/08/15 05:30:40;;;;;;;;;8.00;7.67;;;;;22.04;54.89;100180.75;4980163;28;45499;-72
2022/08/15 05:33:11;;;;;;;;;5.67;5.33;;;;;22.02;55.04;100177.34;4979084;28;45278;-72
2022/08/15 05:35:41;;;;;;;;;9.00;9.00;;;;;22.00;54.91;100182.09;4976403;28;46001;-72
2022/08/15 05:38:17;;;;;;;;;8.00;7.00;;;;;21.98;54.76;100176.84;4980206;28;45412;-72
2022/08/15 05:41:02;;;;;;;;;7.00;7.00;;;;;22.01;55.62;100175.69;4980831;28;45626;-72
2022/08/15 05:43:52;;;;;;;;;8.67;8.67;;;;;22.03;54.95;100170.94;4975750;28;45464;-72
2022/08/15 05:46:43;;;;;;;;;7.00;7.00;;;;;22.05;55.11;100174.31;4980807;28;46688;-72
2022/08/15 05:49:50;;;;;;;;;7.00;7.00;;;;;22.08;55.41;100176.69;4978746;28;45340;-72
2022/08/15 05:52:27;;;;;;;;;8.00;7.00;;;;;22.04;55.20;100183.47;4982006;28;45459;-72
2022/08/15 05:55:02;;;;;;;;;8.00;8.00;;;;;21.96;55.22;100177.00;4977662;28;45340;-72
2022/08/15 05:57:33;;;;;;;;;12.67;11.67;;;;;21.94;55.75;100173.63;4978185;28;46319;-72
2022/08/15 06:00:03;;;;;;;;;9.00;9.00;;;;;21.95;55.55;100182.59;4963192;28;45533;-72
2022/08/15 06:02:36;;;;;;;;;8.33;8.33;;;;;21.93;55.77;100184.63;4978491;28;45266;-72
2022/08/15 06:05:13;;;;;;;;;9.67;9.67;;;;;21.83;55.79;100187.47;4977049;28;45591;-72
2022/08/15 06:07:42;;;;;;;;;8.00;8.00;;;;;21.83;55.51;100195.59;4980788;28;45412;-72
2022/08/15 06:10:14;;;;;;;;;9.33;9.33;;;;;21.88;55.42;100187.81;4986004;28;45348;-72
2022/08/15 06:12:46;;;;;;;;;11.67;11.67;;;;;21.91;55.99;100187.47;4992940;28;45467;-72
2022/08/15 06:15:26;;;;;;;;;7.33;7.33;;;;;21.86;56.04;100183.59;4995128;28;45309;-72
2022/08/15 06:17:58;;;;;;;;;8.67;8.33;;;;;21.88;56.00;100186.97;4989881;28;45472;-72
2022/08/15 06:20:38;;;;;;;;;6.33;4.67;;;;;21.91;55.48;100183.94;4995509;28;45473;-72
2022/08/15 06:23:22;;;;;;;;;9.67;9.67;;;;;21.97;56.11;100186.81;4985539;28;45355;-72
2022/08/15 06:26:07;;;;;;;;;9.00;9.00;;;;;22.06;56.42;100189.53;4990990;28;45936;-72
2022/08/15 06:28:39;;;;;;;;;9.00;9.00;;;;;22.08;55.84;100182.09;4974657;28;45479;-72
2022/08/15 06:31:36;;;;;;;;;11.33;10.00;;;;;22.06;55.61;100178.69;4978239;28;45392;-72
2022/08/15 06:34:04;;;;;;;;;9.67;9.67;;;;;22.00;56.16;100179.38;4979257;28;45474;-72
2022/08/15 06:36:48;;;;;;;;;10.00;9.00;;;;;22.05;55.76;100177.88;4979686;28;45424;-72
2022/08/15 06:39:29;;;;;;;;;10.00;9.00;;;;;22.17;56.10;100186.50;4979412;28;46463;-72
2022/08/15 06:42:16;;;;;;;;;9.67;9.00;;;;;22.23;55.76;100185.84;4963484;28;45396;-73
2022/08/15 06:44:42;;;;;;;;;7.00;7.00;;;;;22.21;55.43;100184.31;4980001;28;45279;-72
2022/08/15 06:47:08;;;;;;;;;10.00;9.33;;;;;22.21;55.19;100173.50;4980415;28;45345;-72
2022/08/15 06:49:40;;;;;;;;;11.00;10.00;;;;;22.25;55.66;100181.13;4979986;28;58674;-72
2022/08/15 06:52:06;;;;;;;;;14.33;13.00;;;;;22.28;55.45;100169.94;4976011;28;45359;-72
2022/08/15 06:54:32;;;;;;;;;7.33;7.33;;;;;22.32;55.02;100167.75;4982473;28;45427;-72
2022/08/15 06:57:27;;;;;;;;;9.00;7.50;;;;;22.48;55.57;100171.50;4981294;28;45356;-72
2022/08/15 07:00:02;;;;;;;;;9.00;9.00;;;;;22.67;55.32;100173.88;4982532;28;45516;-72
2022/08/15 07:02:40;;;;;;;;;8.00;8.00;;;;;22.86;54.46;100175.34;4976322;28;45432;-71
2022/08/15 07:05:27;;;;;;;;;9.00;7.00;;;;;23.05;54.31;100187.69;4979277;28;45559;-72
2022/08/15 07:08:30;;;;;;;;;7.00;7.00;;;;;23.24;53.82;100188.34;4982778;28;45506;-71
2022/08/15 07:11:09;;;;;;;;;9.67;9.33;;;;;23.45;53.59;100185.91;4976941;28;45666;-71
2022/08/15 07:13:56;;;;;;;;;13.33;12.00;;;;;23.71;52.87;100178.47;4981245;28;45464;-71
2022/08/15 07:16:38;;;;;;;;;7.33;7.33;;;;;23.91;52.47;100179.75;4976367;28;45457;-71
2022/08/15 07:19:05;;;;;;;;;10.67;10.67;;;;;24.11;51.75;100185.56;4978686;28;45325;-70
2022/08/15 07:21:30;;;;;;;;;9.67;9.33;;;;;24.23;50.97;100187.88;4979271;28;45420;-71
2022/08/15 07:24:31;;;;;;;;;8.67;8.67;;;;;24.37;50.72;100184.34;4980879;28;69827;-71
2022/08/15 07:27:12;;;;;;;;;8.00;7.67;;;;;24.61;50.42;100190.59;4972769;28;45653;-73
2022/08/15 07:29:37;;;;;;;;;12.67;10.67;;;;;24.73;49.28;100188.31;4992903;28;45561;-72
2022/08/15 07:32:15;;;;;;;;;12.67;12.33;;;;;24.75;49.32;100200.69;4980486;28;46047;-71
2022/08/15 07:35:15;;;;;;;;;5.00;3.67;;;;;24.74;49.42;100195.44;4981314;28;45393;-71
2022/08/15 07:37:45;;;;;;;;;6.33;6.33;;;;;25.02;50.00;100192.16;4977249;28;45356;-71
2022/08/15 07:40:36;;;;;;;;;13.67;10.00;;;;;25.38;48.36;100189.56;4980663;28;45596;-71
2022/08/15 07:43:05;;;;;;;;;9.67;8.00;;;;;25.53;47.89;100186.78;4978707;28;47127;-71
2022/08/15 07:45:38;;;;;;;;;8.33;8.00;;;;;25.69;47.31;100184.91;4980175;28;45430;-72
2022/08/15 07:48:20;;;;;;;;;10.00;8.00;;;;;25.73;47.04;100188.91;4980828;28;45415;-71
2022/08/15 07:51:04;;;;;;;;;11.00;11.00;;;;;25.75;46.99;100186.88;4980877;28;45561;-72
2022/08/15 07:53:30;;;;;;;;;8.00;8.00;;;;;25.61;46.91;100179.56;4979593;28;46098;-71
2022/08/15 07:56:09;;;;;;;;;7.67;7.67;;;;;25.33;47.28;100185.66;4980434;28;45528;-71
2022/08/15 07:58:34;;;;;;;;;8.00;8.00;;;;;25.22;47.27;100190.53;4978164;28;45365;-72
2022/08/15 08:01:27;;;;;;;;;7.00;7.00;;;;;25.42;46.88;100181.81;4984164;28;45520;-71
2022/08/15 08:03:58;;;;;;;;;7.00;6.00;;;;;25.69;45.98;100185.72;4975867;28;45425;-72
2022/08/15 08:06:36;;;;;;;;;7.33;7.33;;;;;26.00;45.66;100183.78;4980407;28;45468;-71
2022/08/15 08:09:07;;;;;;;;;7.67;6.00;;;;;26.39;44.88;100188.00;4978448;28;45442;-72
2022/08/15 08:11:50;;;;;;;;;5.67;5.67;;;;;26.74;44.35;100185.38;4981565;28;45530;-72
2022/08/15 08:14:22;;;;;;;;;7.00;7.00;;;;;27.08;43.64;100186.44;4980814;28;46024;-71
2022/08/15 08:16:55;;;;;;;;;6.00;4.33;;;;;27.31;43.23;100182.59;4979906;28;45338;-72
2022/08/15 08:19:47;;;;;;;;;7.00;5.33;;;;;27.33;42.87;100178.59;4980033;28;45437;-72
2022/08/15 08:22:12;;;;;;;;;4.00;4.00;;;;;27.53;42.73;100186.09;4974706;28;45334;-72
2022/08/15 08:25:01;;;;;;;;;6.00;6.00;;;;;27.54;41.75;100190.50;4981856;28;45423;-72
2022/08/15 08:27:27;;;;;;;;;6.00;4.00;;;;;27.64;42.17;100184.66;4980716;28;45302;-72
2022/08/15 08:30:04;;;;;;;;;5.00;5.00;;;;;28.04;41.86;100187.53;4981775;28;45404;-73
2022/08/15 08:32:44;;;;;;;;;6.00;6.00;;;;;28.51;40.13;100191.19;4977266;28;45822;-72
2022/08/15 08:35:31;;;;;;;;;9.00;8.00;;;;;28.58;39.71;100195.81;4980205;28;45281;-72
2022/08/15 08:38:27;;;;;;;;;6.00;6.00;;;;;28.46;39.63;100190.13;4982459;28;45451;-72
2022/08/15 08:41:34;;;;;;;;;6.00;6.00;;;;;28.68;39.41;100193.53;4978765;28;45508;-71
2022/08/15 08:44:09;;;;;;;;;4.67;4.67;;;;;28.83;40.07;100185.13;4976574;28;45303;-72
2022/08/15 08:47:02;;;;;;;;;6.33;6.00;;;;;28.66;39.41;100187.44;4980033;28;46307;-72
2022/08/15 08:50:09;;;;;;;;;6.00;5.33;;;;;28.51;40.00;100185.72;4980847;28;45340;-71
2022/08/15 08:52:52;;;;;;;;;6.00;6.00;;;;;29.00;39.75;100191.00;4958441;28;45635;-72
2022/08/15 08:55:27;;;;;;;;;4.67;4.67;;;;;29.40;38.57;100193.66;4976373;28;45263;-72
2022/08/15 08:57:58;;;;;;;;;6.00;6.00;;;;;29.61;38.00;100202.66;4980379;28;45994;-72
2022/08/15 09:00:29;;;;;;;;;5.67;5.00;;;;;29.42;37.74;100201.66;4981263;28;45372;-72
2022/08/15 09:02:59;;;;;;;;;6.33;6.33;;;;;28.99;37.16;100208.44;4979657;28;45307;-72
2022/08/15 09:05:48;;;;;;;;;3.67;3.67;;;;;28.62;38.83;100202.56;4976661;28;45436;-72
2022/08/15 09:08:26;;;;;;;;;5.00;5.00;;;;;28.36;38.88;100202.31;4976270;28;46374;-72
2022/08/15 09:10:55;;;;;;;;;5.67;5.67;;;;;27.99;39.51;100203.69;4989175;28;45318;-73
2022/08/15 09:13:34;;;;;;;;;7.00;7.00;;;;;27.58;39.66;100202.69;4982396;28;45532;-72
2022/08/15 09:16:24;;;;;;;;;5.67;5.67;;;;;27.11;40.34;100213.31;4987158;28;45467;-72
2022/08/15 09:18:56;;;;;;;;;5.33;5.33;;;;;26.80;41.27;100202.81;4986018;28;45680;-72
2022/08/15 09:21:21;;;;;;;;;6.67;6.00;;;;;26.67;41.62;100201.63;4989853;28;45444;-72
2022/08/15 09:23:47;;;;;;;;;4.33;4.33;;;;;26.76;41.77;100207.00;4993167;28;70419;-72
2022/08/15 09:26:27;;;;;;;;;6.00;6.00;;;;;26.91;41.65;100203.13;4986651;28;45561;-72
2022/08/15 09:29:20;;;;;;;;;5.00;5.00;;;;;27.05;41.76;100203.22;4987621;28;46125;-72
2022/08/15 09:32:23;;;;;;;;;3.67;3.67;;;;;27.02;41.76;100198.16;4977591;28;45324;-73
2022/08/15 09:35:19;;;;;;;;;3.33;3.33;;;;;27.01;41.17;100197.31;4978416;28;45337;-72
2022/08/15 09:38:30;;;;;;;;;5.00;5.00;;;;;27.03;40.84;100199.84;4976509;28;45631;-72
2022/08/15 09:41:02;;;;;;;;;6.67;6.00;;;;;27.03;41.28;100205.31;4974695;28;45322;-72
2022/08/15 09:44:08;;;;;;;;;4.00;4.00;;;;;27.27;40.90;100209.44;4982650;28;45412;-73
2022/08/15 09:46:35;;;;;;;;;4.00;4.00;;;;;27.41;41.04;100199.47;4978912;28;45325;-72
2022/08/15 09:49:26;;;;;;;;;3.00;3.00;;;;;27.44;40.82;100201.78;4983758;28;45432;-73
2022/08/15 09:52:09;;;;;;;;;4.00;4.00;;;;;27.37;40.90;100206.34;4983102;28;47212;-71
2022/08/15 09:54:45;;;;;;;;;6.67;5.67;;;;;27.29;40.62;100204.63;4983220;28;45294;-73
2022/08/15 09:57:29;;;;;;;;;6.67;5.33;;;;;27.23;40.83;100192.63;4983757;28;45513;-72
2022/08/15 10:00:03;;;;;;;;;6.33;6.00;;;;;27.12;40.60;100195.91;4983933;28;45251;-73
2022/08/15 10:02:32;;;;;;;;;7.00;3.67;;;;;27.01;41.13;100194.59;4981518;28;46380;-72
2022/08/15 10:04:57;;;;;;;;;4.00;4.00;;;;;26.99;41.00;100195.84;4982102;28;45508;-72
2022/08/15 10:07:46;;;;;;;;;3.33;3.33;;;;;26.93;41.14;100189.28;4983731;28;45478;-72
2022/08/15 10:10:17;;;;;;;;;5.33;5.33;;;;;26.84;41.31;100190.47;4982193;28;45405;-72
2022/08/15 10:13:21;;;;;;;;;5.00;5.00;;;;;26.72;41.59;100192.91;4981752;28;46350;-72
2022/08/15 10:15:48;;;;;;;;;6.67;6.67;;;;;26.66;41.90;100190.94;4979807;28;45391;-72
2022/08/15 10:18:22;;;;;;;;;9.67;6.67;;;;;26.57;42.16;100185.63;4984405;28;45282;-73
2022/08/15 10:21:31;;;;;;;;;6.33;5.00;;;;;26.49;42.17;100193.09;4982758;28;45520;-72
2022/08/15 10:23:57;;;;;;;;;0.33;0.33;;;;;26.50;42.86;100189.34;4981062;28;46527;-73
2022/08/15 10:26:31;;;;;;;;;6.33;5.00;;;;;26.94;42.57;100190.97;4983444;28;45480;-73
2022/08/15 10:28:59;;;;;;;;;8.00;5.67;;;;;27.23;41.84;100197.22;4982037;28;45579;-73
2022/08/15 10:31:27;;;;;;;;;5.33;5.33;;;;;27.01;42.74;100199.19;4983114;28;45179;-73
2022/08/15 10:33:57;;;;;;;;;4.00;4.00;;;;;26.73;42.93;100195.44;4977860;28;45507;-73
2022/08/15 10:36:35;;;;;;;;;3.33;2.00;;;;;26.56;42.91;100191.28;4981774;28;45392;-73
2022/08/15 10:39:28;;;;;;;;;3.00;3.00;;;;;26.65;43.12;100200.13;4984299;28;45245;-72
2022/08/15 10:42:08;;;;;;;;;3.00;3.00;;;;;26.74;43.70;100188.94;4980354;28;45520;-72
2022/08/15 10:44:49;;;;;;;;;3.33;3.33;;;;;26.81;42.88;100197.16;4981030;28;46075;-73
2022/08/15 10:47:33;;;;;;;;;1.67;1.67;;;;;26.60;43.36;100199.91;4978252;28;45312;-73
2022/08/15 10:50:04;;;;;;;;;3.00;3.00;;;;;26.44;43.37;100201.88;4981346;28;45584;-73
2022/08/15 10:52:38;;;;;;;;;2.00;2.00;;;;;26.31;43.75;100204.44;4980963;28;45304;-73
2022/08/15 10:55:09;;;;;;;;;2.33;2.33;;;;;26.07;44.40;100203.78;4980200;28;45413;-73
2022/08/15 10:57:47;;;;;;;;;0.67;0.67;;;;;25.82;45.94;100203.28;4982180;28;45327;-73
2022/08/15 11:00:27;;;;;;;;;3.00;3.00;;;;;25.57;45.30;100203.59;4979736;28;45420;-73
2022/08/15 11:02:55;;;;;;;;;3.00;3.00;;;;;25.49;46.36;100200.97;4983061;28;45368;-73
2022/08/15 11:05:20;;;;;;;;;2.33;2.33;;;;;25.51;46.29;100201.63;4980785;28;47179;-73
2022/08/15 11:07:49;;;;;;;;;2.00;2.00;;;;;25.57;45.86;100196.25;4978586;28;68805;-72
2022/08/15 11:10:17;;;;;;;;;3.00;2.00;;;;;25.58;45.72;100200.69;4981946;28;45329;-72
2022/08/15 11:12:45;;;;;;;;;4.33;4.33;;;;;25.54;46.51;100195.78;4980896;28;45451;-73
2022/08/15 11:15:45;;;;;;;;;6.00;4.00;;;;;25.50;46.40;100211.69;4980970;28;45405;-72
2022/08/15 11:18:11;;;;;;;;;1.00;1.00;;;;;25.41;46.12;100210.94;4977539;28;45478;-72
2022/08/15 11:20:42;;;;;;;;;4.00;3.00;;;;;25.43;46.24;100216.19;4980357;28;45315;-72
2022/08/15 11:23:09;;;;;;;;;2.00;2.00;;;;;25.51;46.45;100216.06;4981733;28;45518;-72
2022/08/15 11:25:37;;;;;;;;;1.33;1.33;;;;;25.66;46.50;100213.34;4979425;28;46464;-72
2022/08/15 11:28:20;;;;;;;;;2.00;2.00;;;;;25.81;46.09;100209.75;4981727;28;45449;-73
2022/08/15 11:30:46;;;;;;;;;3.33;3.33;;;;;25.77;45.70;100220.19;4980508;28;45345;-72
2022/08/15 11:33:20;;;;;;;;;4.00;2.67;;;;;25.66;46.65;100215.25;4974555;28;69783;-72
2022/08/15 11:35:46;;;;;;;;;3.00;3.00;;;;;25.82;46.19;100209.56;4979310;28;45887;-72
2022/08/15 11:38:16;;;;;;;;;2.67;2.33;;;;;26.74;45.34;100212.66;4981792;28;45346;-72
2022/08/15 11:40:42;;;;;;;;;2.67;2.67;;;;;27.13;43.73;100210.41;4980805;28;45421;-73
2022/08/15 11:43:13;;;;;;;;;4.33;4.33;;;;;27.12;44.00;100214.16;4982064;28;45586;-72
2022/08/15 11:45:45;;;;;;;;;2.00;2.00;;;;;27.16;43.79;100210.00;4976742;28;45561;-72
2022/08/15 11:48:17;;;;;;;;;2.25;2.25;;;;;27.28;43.74;100210.28;4980562;28;45361;-73
2022/08/15 11:51:01;;;;;;;;;3.33;3.00;;;;;27.30;43.59;100216.38;4980804;28;45883;-73
2022/08/15 11:53:30;;;;;;;;;1.00;1.00;;;;;27.17;43.25;100209.81;4978954;28;45569;-73
2022/08/15 11:55:55;;;;;;;;;5.00;5.00;;;;;27.01;43.62;100208.25;4981970;28;45349;-72
2022/08/15 11:58:38;;;;;;;;;3.00;3.00;;;;;26.91;43.73;100207.75;4980324;28;45369;-72
2022/08/15 12:01:44;;;;;;;;;1.00;1.00;;;;;27.20;43.99;100203.94;4982377;28;45513;-72
2022/08/15 12:04:12;;;;;;;;;3.00;3.00;;;;;27.85;43.54;100214.56;4898366;28;45555;-72
2022/08/15 12:06:40;;;;;;;;;2.00;2.00;;;;;28.37;42.65;100208.66;4920429;28;47012;-72
2022/08/15 12:09:25;;;;;;;;;0.75;0.75;;;;;28.66;41.98;100206.59;4957853;28;45421;-72
2022/08/15 12:11:51;;;;;;;;;3.00;2.67;;;;;29.02;40.59;100211.63;4991151;28;45455;-72
2022/08/15 12:14:27;;;;;;;;;0.00;0.00;;;;;29.03;40.22;100209.72;4990840;28;52592;-73
2022/08/15 12:17:05;;;;;;;;;1.75;1.75;;;;;28.79;40.40;100214.78;4991927;28;45392;-72
2022/08/15 12:19:37;;;;;;;;;1.00;1.00;;;;;28.67;40.55;100216.50;4987263;28;45281;-72
2022/08/15 12:22:08;;;;;;;;;3.00;3.00;;;;;28.45;39.91;100208.44;4988044;28;45540;-72
2022/08/15 12:24:35;;;;;;;;;1.00;1.00;;;;;28.16;40.86;100209.63;4980293;28;45515;-71
2022/08/15 12:27:01;;;;;;;;;0.75;0.75;;;;;28.10;40.83;100211.31;4979373;28;46314;-71
2022/08/15 12:29:31;;;;;;;;;0.67;0.67;;;;;28.12;40.71;100206.50;4980022;28;45431;-72
2022/08/15 12:31:58;;;;;;;;;2.00;2.00;;;;;28.15;40.67;100210.72;4978381;28;45583;-72
2022/08/15 12:34:48;;;;;;;;;0.75;0.75;;;;;28.16;40.56;100205.03;4979439;28;45303;-71
2022/08/15 12:37:17;;;;;;;;;1.75;1.75;;;;;28.18;40.21;100205.66;4978751;28;46154;-71
2022/08/15 12:40:08;;;;;;;;;2.00;1.00;;;;;28.25;40.20;100191.16;4979579;28;45286;-71
2022/08/15 12:42:36;;;;;;;;;0.50;0.50;;;;;28.34;40.15;100200.84;4979058;28;45363;-72
2022/08/15 12:45:11;;;;;;;;;3.00;1.75;;;;;28.45;40.26;100205.72;4981543;28;45458;-73
2022/08/15 12:47:37;;;;;;;;;2.00;2.00;;;;;28.50;40.15;100208.66;4981411;28;45383;-72
2022/08/15 12:50:06;;;;;;;;;1.25;1.25;;;;;28.50;40.07;100214.13;4979600;28;45279;-72
2022/08/15 12:52:31;;;;;;;;;0.50;0.50;;;;;28.43;40.03;100218.72;4982733;28;45459;-72
2022/08/15 12:54:57;;;;;;;;;0.25;0.25;;;;;28.40;40.18;100210.97;4981297;28;45296;-72
2022/08/15 12:57:24;;;;;;;;;1.00;1.00;;;;;28.41;40.08;100218.13;4981451;28;46368;-72
2022/08/15 12:59:49;;;;;;;;;1.00;1.00;;;;;28.45;39.86;100207.59;4980274;28;45325;-71
2022/08/15 13:02:15;;;;;;;;;0.00;0.00;;;;;28.58;39.45;100198.53;4981391;28;61552;-72
2022/08/15 13:04:46;;;;;;;;;1.00;1.00;;;;;28.70;39.85;100207.84;4979117;28;45568;-72
2022/08/15 13:07:12;;;;;;;;;1.00;1.00;;;;;28.76;38.78;100203.41;4981751;28;46196;-72
2022/08/15 13:09:38;;;;;;;;;2.67;1.67;;;;;28.82;39.15;100208.06;4979042;28;45467;-72
2022/08/15 13:12:04;;;;;;;;;1.00;1.00;;;;;28.99;39.12;100195.59;4979502;28;50506;-72
2022/08/15 13:14:30;;;;;;;;;1.00;1.00;;;;;29.15;38.28;100198.94;4979120;28;45492;-74
2022/08/15 13:16:56;;;;;;;;;0.00;0.00;;;;;28.97;38.48;100200.47;4978923;28;46137;-73
2022/08/15 13:19:25;;;;;;;;;0.00;0.00;;;;;28.92;38.54;100199.44;4979092;28;45258;-74
2022/08/15 13:24:37;;;;;;;;;0.00;0.00;;;;;29.00;38.73;100201.94;4974301;28;45452;-73
2022/08/15 13:27:03;;;;;;;;;1.00;1.00;;;;;29.12;38.61;100207.59;4979257;28;45441;-73
2022/08/15 13:29:30;;;;;;;;;0.00;0.00;;;;;29.23;38.07;100206.09;4978972;28;45356;-73
2022/08/15 13:31:55;;;;;;;;;0.00;0.00;;;;;29.35;37.56;100204.41;4979152;28;45388;-74
2022/08/15 13:34:21;;;;;;;;;2.00;2.00;;;;;29.40;38.02;100203.75;4979090;28;45397;-73
2022/08/15 13:36:49;;;;;;;;;2.00;2.00;;;;;29.46;38.03;100200.16;4976325;28;46149;-74
2022/08/15 13:39:20;;;;;;;;;1.00;0.75;;;;;29.56;37.48;100205.19;4980920;28;45464;-73
2022/08/15 13:41:46;;;;;;;;;0.67;0.67;;;;;29.58;37.15;100206.66;4978967;28;45924;-74
2022/08/15 13:44:13;;;;;;;;;1.67;1.00;;;;;29.52;37.91;100204.78;4979150;28;45449;-73
2022/08/15 13:46:39;;;;;;;;;0.75;0.75;;;;;29.56;37.21;100205.19;4978358;28;46959;-73
2022/08/15 13:49:05;;;;;;;;;3.33;1.33;;;;;29.56;37.60;100202.47;4979798;28;45493;-73
2022/08/15 13:51:38;;;;;;;;;1.00;1.00;;;;;29.54;36.98;100197.19;4977393;28;45390;-73
2022/08/15 13:54:03;;;;;;;;;2.00;2.00;;;;;29.56;36.77;100197.81;4979866;28;45234;-72
2022/08/15 13:56:30;;;;;;;;;2.67;2.67;;;;;29.56;36.82;100196.97;4978052;28;52804;-72
2022/08/15 13:58:56;;;;;;;;;2.67;2.67;;;;;29.45;36.95;100203.94;4979924;28;45409;-73
2022/08/15 14:01:24;;;;;;;;;1.67;1.67;;;;;29.17;36.98;100197.69;4981447;28;45537;-72
2022/08/15 14:04:03;;;;;;;;;2.67;2.67;;;;;29.04;37.39;100197.72;4978102;28;45319;-72
2022/08/15 14:06:28;;;;;;;;;1.67;1.67;;;;;28.98;37.80;100193.09;4978847;28;46360;-72
2022/08/15 14:08:54;;;;;;;;;3.67;2.33;;;;;28.98;37.15;100195.81;4984515;28;45426;-73
2022/08/15 14:11:22;;;;;;;;;2.33;2.33;;;;;28.98;37.74;100191.22;4986924;28;56983;-72
2022/08/15 14:13:48;;;;;;;;;2.33;1.33;;;;;28.88;37.27;100197.09;4991582;28;45566;-72
2022/08/15 14:16:13;;;;;;;;;2.33;2.33;;;;;28.81;37.59;100200.88;4986379;28;47123;-73
2022/08/15 14:18:40;;;;;;;;;5.00;5.00;;;;;28.82;37.55;100195.19;4984388;28;57519;-73
2022/08/15 14:21:06;;;;;;;;;3.33;3.33;;;;;28.86;37.28;100195.63;4978926;28;45238;-73
2022/08/15 14:23:33;;;;;;;;;1.67;1.67;;;;;28.87;37.56;100195.41;4977814;28;63369;-73
2022/08/15 14:25:59;;;;;;;;;3.00;3.00;;;;;28.88;37.57;100194.34;4977023;28;45250;-73
2022/08/15 14:28:24;;;;;;;;;4.00;4.00;;;;;28.88;37.21;100191.63;4979444;28;45191;-73
2022/08/15 14:30:49;;;;;;;;;2.00;2.00;;;;;28.89;37.13;100189.75;4980414;28;66297;-73
2022/08/15 14:33:15;;;;;;;;;5.00;4.00;;;;;28.91;37.59;100189.53;4981702;28;45520;-73
2022/08/15 14:35:42;;;;;;;;;3.67;3.67;;;;;28.93;37.08;100188.25;4979311;28;45302;-73
2022/08/15 14:38:08;;;;;;;;;4.67;3.00;;;;;28.88;37.01;100183.41;4981921;28;45501;-73
2022/08/15 14:40:36;;;;;;;;;4.33;4.33;;;;;28.85;37.20;100192.06;4981639;28;45553;-73
2022/08/15 14:43:04;;;;;;;;;3.67;3.67;;;;;28.85;37.26;100186.59;4980302;28;45169;-73
2022/08/15 14:45:38;;;;;;;;;4.00;4.00;;;;;28.87;37.08;100191.84;4983303;28;47277;-73
2022/08/15 14:48:08;;;;;;;;;3.67;3.67;;;;;28.87;37.10;100180.91;4981412;28;45557;-73
2022/08/15 14:50:34;;;;;;;;;3.00;3.00;;;;;28.88;36.99;100183.41;4981243;28;45402;-73
2022/08/15 14:53:00;;;;;;;;;5.00;5.00;;;;;28.87;37.02;100187.19;4983317;28;45461;-73
2022/08/15 14:55:26;;;;;;;;;3.33;3.00;;;;;28.90;37.01;100187.84;4984400;28;61179;-72
2022/08/15 14:57:51;;;;;;;;;5.00;5.00;;;;;28.88;36.44;100188.06;4982967;28;45292;-72
2022/08/15 15:00:19;;;;;;;;;5.00;4.00;;;;;28.79;36.48;100184.69;4982526;28;45950;-72
2022/08/15 15:02:47;;;;;;;;;4.00;4.00;;;;;28.79;36.80;100181.97;4983438;28;45412;-72
2022/08/15 15:05:12;;;;;;;;;2.00;2.00;;;;;28.85;36.51;100177.53;4983145;28;46226;-72
2022/08/15 15:07:38;;;;;;;;;6.67;5.33;;;;;28.88;35.91;100179.84;4980041;28;58455;-72
2022/08/15 15:10:05;;;;;;;;;7.00;7.00;;;;;28.84;34.90;100178.59;4981548;28;45278;-72
2022/08/15 15:12:33;;;;;;;;;7.33;7.33;;;;;28.71;34.86;100185.75;4980909;28;45429;-72
2022/08/15 15:14:59;;;;;;;;;5.00;5.00;;;;;28.66;35.26;100184.72;4980405;28;46213;-72
2022/08/15 15:17:24;;;;;;;;;5.00;5.00;;;;;28.68;35.02;100172.50;4981156;28;45322;-73
2022/08/15 15:19:51;;;;;;;;;3.67;3.67;;;;;28.74;35.07;100180.91;4980539;28;45296;-72
2022/08/15 15:22:20;;;;;;;;;5.33;5.33;;;;;28.77;34.90;100175.84;4981381;28;45436;-72
2022/08/15 15:24:45;;;;;;;;;5.00;3.33;;;;;28.84;35.00;100179.44;4980337;28;46395;-72
2022/08/15 15:27:11;;;;;;;;;6.00;4.33;;;;;28.93;35.05;100181.94;4981031;28;45539;-72
2022/08/15 15:29:36;;;;;;;;;4.00;4.00;;;;;29.00;34.79;100186.34;4979924;28;63143;-72
2022/08/15 15:32:02;;;;;;;;;4.33;4.33;;;;;29.05;34.79;100177.50;4980505;28;64884;-73
2022/08/15 15:34:27;;;;;;;;;3.67;3.67;;;;;29.09;34.92;100186.97;4980230;28;46430;-72
2022/08/15 15:36:53;;;;;;;;;2.67;2.67;;;;;29.11;34.69;100182.13;4979008;28;45345;-73
2022/08/15 15:39:20;;;;;;;;;3.33;3.33;;;;;29.14;34.41;100186.34;4979409;28;62874;-72
2022/08/15 15:41:46;;;;;;;;;6.00;5.00;;;;;29.16;34.68;100186.94;4980900;28;45267;-72
2022/08/15 15:44:12;;;;;;;;;4.00;4.00;;;;;29.17;34.60;100183.16;4980912;28;68705;-72
2022/08/15 15:46:41;;;;;;;;;4.00;4.00;;;;;29.17;34.50;100185.91;4980404;28;45514;-73
2022/08/15 15:49:11;;;;;;;;;5.00;5.00;;;;;29.12;34.87;100183.78;4982059;28;45309;-72
2022/08/15 15:51:36;;;;;;;;;4.67;4.67;;;;;29.07;34.73;100180.84;4978961;28;45421;-72
2022/08/15 15:54:03;;;;;;;;;3.33;3.33;;;;;29.01;35.09;100179.00;4981072;28;73091;-73
2022/08/15 15:56:29;;;;;;;;;4.00;4.00;;;;;28.96;35.20;100176.06;4981766;28;45373;-72
2022/08/15 15:58:55;;;;;;;;;2.67;2.67;;;;;28.94;34.87;100178.16;4980555;28;45345;-72
2022/08/15 16:01:22;;;;;;;;;2.33;2.33;;;;;28.93;35.40;100179.19;4982057;28;66093;-73
2022/08/15 16:03:48;;;;;;;;;4.33;4.33;;;;;28.90;34.82;100182.38;4982119;28;45310;-72
2022/08/15 16:06:21;;;;;;;;;5.00;5.00;;;;;28.89;34.96;100187.00;4979536;28;66977;-72
2022/08/15 16:08:46;;;;;;;;;5.00;5.00;;;;;28.88;35.14;100188.88;4978583;28;45496;-72
2022/08/15 16:11:19;;;;;;;;;6.33;5.00;;;;;28.87;34.72;100189.09;4979160;28;45361;-72
2022/08/15 16:13:58;;;;;;;;;6.33;5.00;;;;;28.84;34.26;100190.38;4978485;28;47126;-73
2022/08/15 16:16:31;;;;;;;;;3.00;3.00;;;;;28.79;33.89;100195.63;4974632;28;45356;-71
2022/08/15 16:19:24;;;;;;;;;3.67;3.67;;;;;28.76;34.88;100193.34;4979627;28;45330;-72
2022/08/15 16:21:58;;;;;;;;;4.67;4.67;;;;;28.74;34.22;100187.22;4978321;28;45341;-72
2022/08/15 16:24:40;;;;;;;;;4.00;4.00;;;;;28.69;34.86;100185.13;4978923;28;46258;-72
2022/08/15 16:27:14;;;;;;;;;6.00;6.00;;;;;28.62;34.66;100184.25;4978890;28;45306;-72